Guetersloh, Germany

11:48 PM CEST on October 22, 2014 (GMT +0200)
INRWVERL2 | Change Station
CLOSE
Current Station
Personal Weather Station
Location: Verl, NRW
Elevation: 282 ft
Nearby Weather Stations

Elev 282 ft 51.89 °N, 8.46 °E | Updated 14 seconds ago

Mostly Cloudy
Mostly Cloudy
49.1 °F
Feels Like 49 °F
N
0.0
Wind Variable Wind from West
Gusts 0.0 mph

Today
High -- | Low -- °F
--% Chance of Precip.
Yesterday
High -- | Low -- °F
Precip. -- in
8:03 AM 6:18 PM
Waning Crescent, 1% visible
Pressure 30.12 in
Visibility 6.2 miles
Clouds Mostly Cloudy 4000 ft
Windchill 49 °F
Dew Point 42 °F
Humidity 76%
Rainfall 0.27 in
Snow Depth Not available.
UV 0.0 out of 12
Pollen Not available.
Air Quality Not available.
Flu Activity Not available.
METAR EDLP 222120Z 28008KT 9999 BKN040 08/05 Q1020 RMK ATIS PAP

More Conditions Fewer Conditions

Pressure 30.12 in
Visibility 6.2 miles
Clouds Mostly Cloudy 4000 ft
Windchill 49 °F
Dew Point 42 °F
Humidity 76%
Rainfall 0.27 in
Snow Depth Not available.
UV 0.0 out of 12
Pollen Not available.
Air Quality Not available.
Flu Activity Not available.
METAR EDLP 222120Z 28008KT 9999 BKN040 08/05 Q1020 RMK ATIS PAP

More Conditions Fewer Conditions

10-Day Weather Forecast

Almanac

Astronomy

Oct. 22, 2014 Rise Set
Actual Time 8:03 AM CEST 6:18 PM CEST
Civil Twilight 7:28 AM CEST 6:52 PM CEST
Nautical Twilight 6:49 AM CEST 7:32 PM CEST
Astronomical Twilight 6:10 AM CEST 8:10 PM CEST
Moon 6:18 AM CEST 5:43 PM CEST
Length of Visible Light 11h 24m
Length of Day
10h 15m
Tomorrow will be 3m 49s shorter.
Waning Crescent, 1% of the Moon is Illuminated
Today
Waning Crescent
Oct 23
New
Oct 30
First Quarter
Nov 6
Full
Nov 14
Last Quarter

Today's Extremes

Country Highs Country Lows

Community

WunderPhotos

Upload Photos

1,764,047 photos uploaded!

WunderBlogs® & News

Nearby

Snow Depth

Not available.

Earthquake Activity

City Distance Mag. Time & Date
No recent earthquake activity has been reported nearby.
Minimum magnitude displayed is 2.5.

Coastal Water Temperatures

Place Temperature
No Stations Reporting

Nearby Weather Stations